sensor_id;sensor_type;location;lat;lon;timestamp;temperature;humidity
28374;DHT22;15616;40.148;-102.718;2022-12-18T00:01:48;20.00;42.50
28374;DHT22;15616;40.148;-102.718;2022-12-18T00:04:23;20.00;42.50
28374;DHT22;15616;40.148;-102.718;2022-12-18T00:06:49;20.00;42.50
28374;DHT22;15616;40.148;-102.718;2022-12-18T00:09:15;20.00;42.50
28374;DHT22;15616;40.148;-102.718;2022-12-18T00:11:42;20.00;42.60
28374;DHT22;15616;40.148;-102.718;2022-12-18T00:14:10;20.00;42.60
28374;DHT22;15616;40.148;-102.718;2022-12-18T00:16:36;20.00;42.60
28374;DHT22;15616;40.148;-102.718;2022-12-18T00:19:03;19.90;42.60
28374;DHT22;15616;40.148;-102.718;2022-12-18T00:21:31;19.90;42.60
28374;DHT22;15616;40.148;-102.718;2022-12-18T00:23:58;20.00;42.60
28374;DHT22;15616;40.148;-102.718;2022-12-18T00:26:29;20.00;42.60
28374;DHT22;15616;40.148;-102.718;2022-12-18T00:29:02;20.00;42.60
28374;DHT22;15616;40.148;-102.718;2022-12-18T00:31:28;20.00;42.50
28374;DHT22;15616;40.148;-102.718;2022-12-18T00:33:54;20.00;42.50
28374;DHT22;15616;40.148;-102.718;2022-12-18T00:36:24;20.00;42.50
28374;DHT22;15616;40.148;-102.718;2022-12-18T00:38:51;20.00;42.50
28374;DHT22;15616;40.148;-102.718;2022-12-18T00:41:18;20.00;42.50
28374;DHT22;15616;40.148;-102.718;2022-12-18T00:44:05;20.00;42.50
28374;DHT22;15616;40.148;-102.718;2022-12-18T00:46:31;20.00;42.50
28374;DHT22;15616;40.148;-102.718;2022-12-18T00:48:57;20.00;42.50
28374;DHT22;15616;40.148;-102.718;2022-12-18T00:51:24;20.00;42.50
28374;DHT22;15616;40.148;-102.718;2022-12-18T00:53:50;20.00;42.50
28374;DHT22;15616;40.148;-102.718;2022-12-18T00:56:16;20.00;42.50
28374;DHT22;15616;40.148;-102.718;2022-12-18T00:58:42;20.00;42.60
28374;DHT22;15616;40.148;-102.718;2022-12-18T01:01:08;19.90;42.60
28374;DHT22;15616;40.148;-102.718;2022-12-18T01:03:34;19.90;42.60
28374;DHT22;15616;40.148;-102.718;2022-12-18T01:06:09;19.90;42.60
28374;DHT22;15616;40.148;-102.718;2022-12-18T01:08:35;20.00;42.60
28374;DHT22;15616;40.148;-102.718;2022-12-18T01:11:08;20.00;42.60
28374;DHT22;15616;40.148;-102.718;2022-12-18T01:13:35;20.00;42.60
28374;DHT22;15616;40.148;-102.718;2022-12-18T01:16:01;20.00;42.50
28374;DHT22;15616;40.148;-102.718;2022-12-18T01:18:26;20.00;42.50
28374;DHT22;15616;40.148;-102.718;2022-12-18T01:20:52;20.00;42.50
28374;DHT22;15616;40.148;-102.718;2022-12-18T01:23:18;20.00;42.50
28374;DHT22;15616;40.148;-102.718;2022-12-18T01:25:44;20.00;42.50
28374;DHT22;15616;40.148;-102.718;2022-12-18T01:28:10;20.00;42.50
28374;DHT22;15616;40.148;-102.718;2022-12-18T01:30:35;20.00;42.50
28374;DHT22;15616;40.148;-102.718;2022-12-18T01:33:02;19.90;42.50
28374;DHT22;15616;40.148;-102.718;2022-12-18T01:35:29;19.90;42.50
28374;DHT22;15616;40.148;-102.718;2022-12-18T01:37:55;19.90;42.50
28374;DHT22;15616;40.148;-102.718;2022-12-18T01:40:21;19.90;42.60
28374;DHT22;15616;40.148;-102.718;2022-12-18T01:42:53;19.90;42.60
28374;DHT22;15616;40.148;-102.718;2022-12-18T01:45:25;20.00;42.60
28374;DHT22;15616;40.148;-102.718;2022-12-18T01:48:00;20.00;42.60
28374;DHT22;15616;40.148;-102.718;2022-12-18T01:50:37;20.00;42.60
28374;DHT22;15616;40.148;-102.718;2022-12-18T01:53:14;20.00;42.60
28374;DHT22;15616;40.148;-102.718;2022-12-18T01:55:47;20.00;42.60
28374;DHT22;15616;40.148;-102.718;2022-12-18T01:58:14;20.00;42.50
28374;DHT22;15616;40.148;-102.718;2022-12-18T02:00:41;20.00;42.50
28374;DHT22;15616;40.148;-102.718;2022-12-18T02:03:07;20.00;42.50
28374;DHT22;15616;40.148;-102.718;2022-12-18T02:06:00;20.00;42.50
28374;DHT22;15616;40.148;-102.718;2022-12-18T02:08:58;20.00;42.50
28374;DHT22;15616;40.148;-102.718;2022-12-18T02:14:31;19.90;42.50
28374;DHT22;15616;40.148;-102.718;2022-12-18T02:27:49;19.90;42.70
28374;DHT22;15616;40.148;-102.718;2022-12-18T02:30:17;19.90;42.70
28374;DHT22;15616;40.148;-102.718;2022-12-18T02:32:50;19.90;42.60
28374;DHT22;15616;40.148;-102.718;2022-12-18T02:35:22;20.00;42.60
28374;DHT22;15616;40.148;-102.718;2022-12-18T02:37:49;20.00;43.30
28374;DHT22;15616;40.148;-102.718;2022-12-18T02:40:17;20.00;42.60
28374;DHT22;15616;40.148;-102.718;2022-12-18T02:42:44;20.00;42.50
28374;DHT22;15616;40.148;-102.718;2022-12-18T02:45:10;20.00;42.50
28374;DHT22;15616;40.148;-102.718;2022-12-18T02:47:42;20.00;42.50
28374;DHT22;15616;40.148;-102.718;2022-12-18T02:50:38;20.00;42.50
28374;DHT22;15616;40.148;-102.718;2022-12-18T02:53:28;20.00;42.50
28374;DHT22;15616;40.148;-102.718;2022-12-18T02:55:59;20.00;42.50
28374;DHT22;15616;40.148;-102.718;2022-12-18T02:58:59;19.90;42.50
28374;DHT22;15616;40.148;-102.718;2022-12-18T03:01:52;19.90;42.50
28374;DHT22;15616;40.148;-102.718;2022-12-18T03:04:31;19.90;42.60
28374;DHT22;15616;40.148;-102.718;2022-12-18T03:07:02;19.90;42.60
28374;DHT22;15616;40.148;-102.718;2022-12-18T03:09:41;19.90;42.60
28374;DHT22;15616;40.148;-102.718;2022-12-18T03:12:24;19.90;42.70
28374;DHT22;15616;40.148;-102.718;2022-12-18T03:17:33;19.90;42.60
28374;DHT22;15616;40.148;-102.718;2022-12-18T03:20:06;19.90;42.60
28374;DHT22;15616;40.148;-102.718;2022-12-18T03:22:34;20.00;42.60
28374;DHT22;15616;40.148;-102.718;2022-12-18T03:25:04;20.00;42.50
28374;DHT22;15616;40.148;-102.718;2022-12-18T03:27:33;20.00;42.50
28374;DHT22;15616;40.148;-102.718;2022-12-18T03:30:06;20.00;42.50
28374;DHT22;15616;40.148;-102.718;2022-12-18T03:35:07;20.00;42.50
28374;DHT22;15616;40.148;-102.718;2022-12-18T03:37:34;19.90;42.50
28374;DHT22;15616;40.148;-102.718;2022-12-18T03:40:00;19.90;42.50
28374;DHT22;15616;40.148;-102.718;2022-12-18T03:42:32;19.90;42.50
28374;DHT22;15616;40.148;-102.718;2022-12-18T03:45:13;19.90;42.50
28374;DHT22;15616;40.148;-102.718;2022-12-18T03:47:47;19.90;42.50
28374;DHT22;15616;40.148;-102.718;2022-12-18T03:50:44;19.90;42.60
28374;DHT22;15616;40.148;-102.718;2022-12-18T03:55:47;19.90;42.60
28374;DHT22;15616;40.148;-102.718;2022-12-18T03:58:17;19.90;42.60
28374;DHT22;15616;40.148;-102.718;2022-12-18T04:00:44;19.90;42.60
28374;DHT22;15616;40.148;-102.718;2022-12-18T04:03:12;19.90;42.50
28374;DHT22;15616;40.148;-102.718;2022-12-18T04:05:39;19.90;42.50
28374;DHT22;15616;40.148;-102.718;2022-12-18T04:08:06;19.90;42.50
28374;DHT22;15616;40.148;-102.718;2022-12-18T04:10:35;19.90;42.50
28374;DHT22;15616;40.148;-102.718;2022-12-18T04:13:01;20.00;42.50
28374;DHT22;15616;40.148;-102.718;2022-12-18T04:15:27;20.00;42.50
28374;DHT22;15616;40.148;-102.718;2022-12-18T04:17:53;20.00;42.50
28374;DHT22;15616;40.148;-102.718;2022-12-18T04:20:19;19.90;42.50
28374;DHT22;15616;40.148;-102.718;2022-12-18T04:22:44;19.90;42.50
28374;DHT22;15616;40.148;-102.718;2022-12-18T04:25:10;19.90;42.50
28374;DHT22;15616;40.148;-102.718;2022-12-18T04:27:36;19.90;42.50
28374;DHT22;15616;40.148;-102.718;2022-12-18T04:30:02;19.90;42.50
28374;DHT22;15616;40.148;-102.718;2022-12-18T04:32:28;19.90;42.50
28374;DHT22;15616;40.148;-102.718;2022-12-18T04:34:54;19.90;42.60
28374;DHT22;15616;40.148;-102.718;2022-12-18T04:37:20;19.90;42.50
28374;DHT22;15616;40.148;-102.718;2022-12-18T04:39:46;19.90;42.50
28374;DHT22;15616;40.148;-102.718;2022-12-18T04:42:12;19.90;42.50
28374;DHT22;15616;40.148;-102.718;2022-12-18T04:44:38;19.90;42.50
28374;DHT22;15616;40.148;-102.718;2022-12-18T04:47:03;19.90;42.50
28374;DHT22;15616;40.148;-102.718;2022-12-18T04:49:29;19.90;42.50
28374;DHT22;15616;40.148;-102.718;2022-12-18T04:51:55;19.90;42.50
28374;DHT22;15616;40.148;-102.718;2022-12-18T04:54:21;19.90;42.50
28374;DHT22;15616;40.148;-102.718;2022-12-18T04:56:47;19.90;42.50
28374;DHT22;15616;40.148;-102.718;2022-12-18T04:59:13;19.90;42.50
28374;DHT22;15616;40.148;-102.718;2022-12-18T05:01:39;19.90;42.50
28374;DHT22;15616;40.148;-102.718;2022-12-18T05:04:04;19.80;42.50
28374;DHT22;15616;40.148;-102.718;2022-12-18T05:06:30;19.80;42.50
28374;DHT22;15616;40.148;-102.718;2022-12-18T05:08:56;19.80;42.50
28374;DHT22;15616;40.148;-102.718;2022-12-18T05:11:22;19.80;42.50
28374;DHT22;15616;40.148;-102.718;2022-12-18T05:13:48;19.90;42.50
28374;DHT22;15616;40.148;-102.718;2022-12-18T05:16:14;19.90;42.50
28374;DHT22;15616;40.148;-102.718;2022-12-18T05:18:40;19.90;42.50
28374;DHT22;15616;40.148;-102.718;2022-12-18T05:21:06;19.90;42.50
28374;DHT22;15616;40.148;-102.718;2022-12-18T05:23:32;19.90;42.50
28374;DHT22;15616;40.148;-102.718;2022-12-18T05:26:03;19.90;42.50
28374;DHT22;15616;40.148;-102.718;2022-12-18T05:28:30;19.90;42.40
28374;DHT22;15616;40.148;-102.718;2022-12-18T05:30:59;20.00;42.50
28374;DHT22;15616;40.148;-102.718;2022-12-18T05:33:28;19.90;42.40
28374;DHT22;15616;40.148;-102.718;2022-12-18T05:35:58;20.00;42.50
28374;DHT22;15616;40.148;-102.718;2022-12-18T05:38:30;19.90;42.50
28374;DHT22;15616;40.148;-102.718;2022-12-18T05:40:56;19.90;42.50
28374;DHT22;15616;40.148;-102.718;2022-12-18T05:43:24;19.90;42.50
28374;DHT22;15616;40.148;-102.718;2022-12-18T05:45:51;19.90;42.50
28374;DHT22;15616;40.148;-102.718;2022-12-18T05:48:17;19.90;42.50
28374;DHT22;15616;40.148;-102.718;2022-12-18T05:50:45;19.90;42.50
28374;DHT22;15616;40.148;-102.718;2022-12-18T05:53:12;19.90;42.50
28374;DHT22;15616;40.148;-102.718;2022-12-18T05:55:40;19.90;43.10
28374;DHT22;15616;40.148;-102.718;2022-12-18T05:58:08;19.90;42.50
28374;DHT22;15616;40.148;-102.718;2022-12-18T06:00:36;19.90;42.50
28374;DHT22;15616;40.148;-102.718;2022-12-18T06:03:09;19.90;42.50
28374;DHT22;15616;40.148;-102.718;2022-12-18T06:05:40;19.90;42.50
28374;DHT22;15616;40.148;-102.718;2022-12-18T06:08:06;19.90;42.50
28374;DHT22;15616;40.148;-102.718;2022-12-18T06:10:32;19.90;42.50
28374;DHT22;15616;40.148;-102.718;2022-12-18T06:12:59;19.90;42.40
28374;DHT22;15616;40.148;-102.718;2022-12-18T06:15:25;19.90;42.40
28374;DHT22;15616;40.148;-102.718;2022-12-18T06:17:50;19.90;42.40
28374;DHT22;15616;40.148;-102.718;2022-12-18T06:20:17;19.90;42.40
28374;DHT22;15616;40.148;-102.718;2022-12-18T06:22:43;19.90;42.40
28374;DHT22;15616;40.148;-102.718;2022-12-18T06:25:09;19.90;42.40
28374;DHT22;15616;40.148;-102.718;2022-12-18T06:27:34;19.90;42.50
28374;DHT22;15616;40.148;-102.718;2022-12-18T06:30:01;19.80;42.40
28374;DHT22;15616;40.148;-102.718;2022-12-18T06:32:27;19.90;42.50
28374;DHT22;15616;40.148;-102.718;2022-12-18T06:34:53;19.80;42.40
28374;DHT22;15616;40.148;-102.718;2022-12-18T06:37:21;19.80;42.40
28374;DHT22;15616;40.148;-102.718;2022-12-18T06:39:50;19.90;42.50
28374;DHT22;15616;40.148;-102.718;2022-12-18T06:42:16;19.90;42.50
28374;DHT22;15616;40.148;-102.718;2022-12-18T06:44:41;19.90;42.50
28374;DHT22;15616;40.148;-102.718;2022-12-18T06:47:07;19.90;42.40
28374;DHT22;15616;40.148;-102.718;2022-12-18T06:49:33;19.90;42.40
28374;DHT22;15616;40.148;-102.718;2022-12-18T06:51:59;19.90;42.40
28374;DHT22;15616;40.148;-102.718;2022-12-18T06:54:25;19.90;42.30
28374;DHT22;15616;40.148;-102.718;2022-12-18T06:56:51;19.90;42.40
28374;DHT22;15616;40.148;-102.718;2022-12-18T06:59:16;19.90;42.30
28374;DHT22;15616;40.148;-102.718;2022-12-18T07:01:42;19.90;42.40
28374;DHT22;15616;40.148;-102.718;2022-12-18T07:04:08;19.90;43.10
28374;DHT22;15616;40.148;-102.718;2022-12-18T07:06:34;19.90;42.40
28374;DHT22;15616;40.148;-102.718;2022-12-18T07:09:00;19.80;42.40
28374;DHT22;15616;40.148;-102.718;2022-12-18T07:11:26;19.80;42.50
28374;DHT22;15616;40.148;-102.718;2022-12-18T07:13:52;19.90;42.50
28374;DHT22;15616;40.148;-102.718;2022-12-18T07:16:20;19.80;42.40
28374;DHT22;15616;40.148;-102.718;2022-12-18T07:18:46;19.80;42.40
28374;DHT22;15616;40.148;-102.718;2022-12-18T07:21:15;19.90;42.50
28374;DHT22;15616;40.148;-102.718;2022-12-18T07:23:42;19.90;42.50
28374;DHT22;15616;40.148;-102.718;2022-12-18T07:26:11;19.90;42.50
28374;DHT22;15616;40.148;-102.718;2022-12-18T07:28:38;19.90;42.50
28374;DHT22;15616;40.148;-102.718;2022-12-18T07:31:16;19.90;42.50
28374;DHT22;15616;40.148;-102.718;2022-12-18T07:33:42;19.90;42.40
28374;DHT22;15616;40.148;-102.718;2022-12-18T07:36:09;19.90;42.50
28374;DHT22;15616;40.148;-102.718;2022-12-18T07:38:35;19.90;42.40
28374;DHT22;15616;40.148;-102.718;2022-12-18T07:41:06;19.90;42.40
28374;DHT22;15616;40.148;-102.718;2022-12-18T07:43:32;19.90;42.40
28374;DHT22;15616;40.148;-102.718;2022-12-18T07:45:59;19.90;42.40
28374;DHT22;15616;40.148;-102.718;2022-12-18T07:48:25;19.90;42.40
28374;DHT22;15616;40.148;-102.718;2022-12-18T07:50:51;19.80;42.30
28374;DHT22;15616;40.148;-102.718;2022-12-18T07:53:17;19.80;42.40
28374;DHT22;15616;40.148;-102.718;2022-12-18T07:55:43;19.80;42.40
28374;DHT22;15616;40.148;-102.718;2022-12-18T07:58:09;19.80;42.40
28374;DHT22;15616;40.148;-102.718;2022-12-18T08:00:35;19.80;42.40
28374;DHT22;15616;40.148;-102.718;2022-12-18T08:03:01;19.90;42.50
28374;DHT22;15616;40.148;-102.718;2022-12-18T08:05:27;19.90;42.50
28374;DHT22;15616;40.148;-102.718;2022-12-18T08:07:54;19.90;42.40
28374;DHT22;15616;40.148;-102.718;2022-12-18T08:10:20;19.90;42.40
28374;DHT22;15616;40.148;-102.718;2022-12-18T08:12:50;19.90;42.40
28374;DHT22;15616;40.148;-102.718;2022-12-18T08:15:16;20.00;42.40
28374;DHT22;15616;40.148;-102.718;2022-12-18T08:17:42;20.00;42.30
28374;DHT22;15616;40.148;-102.718;2022-12-18T08:20:08;20.00;42.30
28374;DHT22;15616;40.148;-102.718;2022-12-18T08:22:35;20.00;42.30
28374;DHT22;15616;40.148;-102.718;2022-12-18T08:25:04;20.00;42.30
28374;DHT22;15616;40.148;-102.718;2022-12-18T08:27:30;20.00;42.30
28374;DHT22;15616;40.148;-102.718;2022-12-18T08:29:57;20.00;42.30
28374;DHT22;15616;40.148;-102.718;2022-12-18T08:32:24;20.00;42.30
28374;DHT22;15616;40.148;-102.718;2022-12-18T08:34:50;19.90;42.30
28374;DHT22;15616;40.148;-102.718;2022-12-18T08:37:16;19.90;42.30
28374;DHT22;15616;40.148;-102.718;2022-12-18T08:39:42;19.90;42.30
28374;DHT22;15616;40.148;-102.718;2022-12-18T08:42:07;19.90;42.30
28374;DHT22;15616;40.148;-102.718;2022-12-18T08:44:52;20.00;42.40
28374;DHT22;15616;40.148;-102.718;2022-12-18T08:47:18;19.90;42.30
28374;DHT22;15616;40.148;-102.718;2022-12-18T08:49:43;19.90;42.30
28374;DHT22;15616;40.148;-102.718;2022-12-18T08:52:09;20.00;42.30
28374;DHT22;15616;40.148;-102.718;2022-12-18T08:54:35;20.00;42.30
28374;DHT22;15616;40.148;-102.718;2022-12-18T08:57:01;20.00;42.30
28374;DHT22;15616;40.148;-102.718;2022-12-18T08:59:30;20.00;42.20
28374;DHT22;15616;40.148;-102.718;2022-12-18T09:01:56;20.00;42.20
28374;DHT22;15616;40.148;-102.718;2022-12-18T09:04:22;20.00;42.00
28374;DHT22;15616;40.148;-102.718;2022-12-18T09:06:48;20.00;42.10
28374;DHT22;15616;40.148;-102.718;2022-12-18T09:09:14;20.00;42.10
28374;DHT22;15616;40.148;-102.718;2022-12-18T09:11:40;20.00;42.10
28374;DHT22;15616;40.148;-102.718;2022-12-18T09:14:06;20.00;42.10
28374;DHT22;15616;40.148;-102.718;2022-12-18T09:16:32;20.00;42.10
28374;DHT22;15616;40.148;-102.718;2022-12-18T09:19:01;20.00;42.20
28374;DHT22;15616;40.148;-102.718;2022-12-18T09:21:33;20.00;42.20
28374;DHT22;15616;40.148;-102.718;2022-12-18T09:24:00;20.00;42.20
28374;DHT22;15616;40.148;-102.718;2022-12-18T09:26:26;20.00;42.20
28374;DHT22;15616;40.148;-102.718;2022-12-18T09:28:52;20.00;42.20
28374;DHT22;15616;40.148;-102.718;2022-12-18T09:31:20;20.00;42.20
28374;DHT22;15616;40.148;-102.718;2022-12-18T09:33:46;20.00;42.20
28374;DHT22;15616;40.148;-102.718;2022-12-18T09:36:16;20.00;42.10
28374;DHT22;15616;40.148;-102.718;2022-12-18T09:38:43;20.10;42.10
28374;DHT22;15616;40.148;-102.718;2022-12-18T09:44:03;20.10;42.00
28374;DHT22;15616;40.148;-102.718;2022-12-18T09:46:38;20.10;42.00
28374;DHT22;15616;40.148;-102.718;2022-12-18T09:49:11;20.10;42.00
28374;DHT22;15616;40.148;-102.718;2022-12-18T09:52:02;20.00;42.00
28374;DHT22;15616;40.148;-102.718;2022-12-18T09:54:35;20.10;42.00
28374;DHT22;15616;40.148;-102.718;2022-12-18T09:57:02;20.00;42.10
28374;DHT22;15616;40.148;-102.718;2022-12-18T09:59:36;20.00;42.10
28374;DHT22;15616;40.148;-102.718;2022-12-18T10:02:21;20.00;42.10
28374;DHT22;15616;40.148;-102.718;2022-12-18T10:04:58;20.00;42.10
28374;DHT22;15616;40.148;-102.718;2022-12-18T10:10:23;20.00;42.20
28374;DHT22;15616;40.148;-102.718;2022-12-18T10:15:40;20.00;42.10
28374;DHT22;15616;40.148;-102.718;2022-12-18T10:20:41;20.00;42.10
28374;DHT22;15616;40.148;-102.718;2022-12-18T10:23:33;20.00;42.10
28374;DHT22;15616;40.148;-102.718;2022-12-18T10:26:05;20.10;42.00
28374;DHT22;15616;40.148;-102.718;2022-12-18T10:28:35;20.10;42.00
28374;DHT22;15616;40.148;-102.718;2022-12-18T10:31:01;20.00;41.90
28374;DHT22;15616;40.148;-102.718;2022-12-18T10:33:33;20.00;41.90
28374;DHT22;15616;40.148;-102.718;2022-12-18T10:35:59;20.10;41.90
28374;DHT22;15616;40.148;-102.718;2022-12-18T10:38:28;20.00;41.90
28374;DHT22;15616;40.148;-102.718;2022-12-18T10:43:37;20.00;41.90
28374;DHT22;15616;40.148;-102.718;2022-12-18T10:53:58;20.00;42.00
28374;DHT22;15616;40.148;-102.718;2022-12-18T10:56:27;20.00;42.00
28374;DHT22;15616;40.148;-102.718;2022-12-18T10:59:02;20.00;42.00
28374;DHT22;15616;40.148;-102.718;2022-12-18T11:04:22;20.10;41.90
28374;DHT22;15616;40.148;-102.718;2022-12-18T11:06:54;20.10;41.90
28374;DHT22;15616;40.148;-102.718;2022-12-18T11:09:32;20.10;41.90
28374;DHT22;15616;40.148;-102.718;2022-12-18T11:12:04;20.10;41.80
28374;DHT22;15616;40.148;-102.718;2022-12-18T11:17:28;20.10;41.80
28374;DHT22;15616;40.148;-102.718;2022-12-18T11:20:00;20.10;41.80
28374;DHT22;15616;40.148;-102.718;2022-12-18T11:22:28;20.10;41.90
28374;DHT22;15616;40.148;-102.718;2022-12-18T11:25:06;20.00;41.90
28374;DHT22;15616;40.148;-102.718;2022-12-18T11:28:25;20.00;41.90
28374;DHT22;15616;40.148;-102.718;2022-12-18T11:30:36;20.00;42.00
28374;DHT22;15616;40.148;-102.718;2022-12-18T11:33:08;20.00;42.10
28374;DHT22;15616;40.148;-102.718;2022-12-18T11:35:37;20.00;42.10
28374;DHT22;15616;40.148;-102.718;2022-12-18T11:38:23;20.00;42.10
28374;DHT22;15616;40.148;-102.718;2022-12-18T11:40:58;20.00;42.00
28374;DHT22;15616;40.148;-102.718;2022-12-18T11:43:34;20.00;42.00
28374;DHT22;15616;40.148;-102.718;2022-12-18T11:46:07;20.00;42.00
28374;DHT22;15616;40.148;-102.718;2022-12-18T11:48:43;20.00;41.90
28374;DHT22;15616;40.148;-102.718;2022-12-18T11:51:15;20.10;41.90
28374;DHT22;15616;40.148;-102.718;2022-12-18T11:53:44;20.10;41.90
28374;DHT22;15616;40.148;-102.718;2022-12-18T11:56:29;20.10;41.90
28374;DHT22;15616;40.148;-102.718;2022-12-18T11:59:12;20.10;41.80
28374;DHT22;15616;40.148;-102.718;2022-12-18T12:02:01;20.10;41.80
28374;DHT22;15616;40.148;-102.718;2022-12-18T12:04:55;20.10;41.80
28374;DHT22;15616;40.148;-102.718;2022-12-18T12:21:42;20.00;42.00
28374;DHT22;15616;40.148;-102.718;2022-12-18T12:29:51;20.10;41.90
28374;DHT22;15616;40.148;-102.718;2022-12-18T12:35:25;20.10;41.70
28374;DHT22;15616;40.148;-102.718;2022-12-18T12:38:49;20.10;41.80
28374;DHT22;15616;40.148;-102.718;2022-12-18T12:41:08;20.10;41.80
28374;DHT22;15616;40.148;-102.718;2022-12-18T12:43:57;20.10;41.80
28374;DHT22;15616;40.148;-102.718;2022-12-18T12:46:25;20.00;41.80
28374;DHT22;15616;40.148;-102.718;2022-12-18T12:49:09;20.00;41.80
28374;DHT22;15616;40.148;-102.718;2022-12-18T12:51:37;20.10;41.80
28374;DHT22;15616;40.148;-102.718;2022-12-18T12:54:09;20.00;41.90
28374;DHT22;15616;40.148;-102.718;2022-12-18T12:59:19;20.00;41.90
28374;DHT22;15616;40.148;-102.718;2022-12-18T13:02:10;20.00;41.90
28374;DHT22;15616;40.148;-102.718;2022-12-18T13:05:34;20.10;41.90
28374;DHT22;15616;40.148;-102.718;2022-12-18T13:07:52;20.10;41.80
28374;DHT22;15616;40.148;-102.718;2022-12-18T13:13:03;20.10;41.90
28374;DHT22;15616;40.148;-102.718;2022-12-18T13:31:57;20.00;41.80
28374;DHT22;15616;40.148;-102.718;2022-12-18T13:34:19;20.00;41.80
28374;DHT22;15616;40.148;-102.718;2022-12-18T13:36:46;20.00;41.90
28374;DHT22;15616;40.148;-102.718;2022-12-18T13:41:46;20.10;41.90
28374;DHT22;15616;40.148;-102.718;2022-12-18T13:44:17;20.00;41.90
28374;DHT22;15616;40.148;-102.718;2022-12-18T13:46:46;20.00;41.90
28374;DHT22;15616;40.148;-102.718;2022-12-18T13:51:53;20.00;41.90
28374;DHT22;15616;40.148;-102.718;2022-12-18T13:54:35;20.10;41.90
28374;DHT22;15616;40.148;-102.718;2022-12-18T13:57:05;20.10;41.80
28374;DHT22;15616;40.148;-102.718;2022-12-18T13:59:39;20.10;41.80
28374;DHT22;15616;40.148;-102.718;2022-12-18T14:02:17;20.10;41.70
28374;DHT22;15616;40.148;-102.718;2022-12-18T14:04:47;20.10;41.70
28374;DHT22;15616;40.148;-102.718;2022-12-18T14:07:17;20.10;41.70
28374;DHT22;15616;40.148;-102.718;2022-12-18T14:09:49;20.00;41.70
28374;DHT22;15616;40.148;-102.718;2022-12-18T14:12:19;20.00;41.70
28374;DHT22;15616;40.148;-102.718;2022-12-18T14:15:06;20.00;41.80
28374;DHT22;15616;40.148;-102.718;2022-12-18T14:17:36;20.00;41.80
28374;DHT22;15616;40.148;-102.718;2022-12-18T14:20:02;20.00;41.90
28374;DHT22;15616;40.148;-102.718;2022-12-18T14:22:29;20.00;41.90
28374;DHT22;15616;40.148;-102.718;2022-12-18T14:25:16;20.00;41.90
28374;DHT22;15616;40.148;-102.718;2022-12-18T14:27:52;20.10;41.90
28374;DHT22;15616;40.148;-102.718;2022-12-18T14:30:29;20.00;41.80
28374;DHT22;15616;40.148;-102.718;2022-12-18T14:33:04;20.10;41.90
28374;DHT22;15616;40.148;-102.718;2022-12-18T14:35:31;20.10;41.80
28374;DHT22;15616;40.148;-102.718;2022-12-18T14:38:22;20.00;41.80
28374;DHT22;15616;40.148;-102.718;2022-12-18T14:41:00;20.10;41.80
28374;DHT22;15616;40.148;-102.718;2022-12-18T14:43:28;20.10;41.80
28374;DHT22;15616;40.148;-102.718;2022-12-18T14:45:55;20.00;41.70
28374;DHT22;15616;40.148;-102.718;2022-12-18T14:48:34;20.00;41.80
28374;DHT22;15616;40.148;-102.718;2022-12-18T14:56:23;20.00;41.70
28374;DHT22;15616;40.148;-102.718;2022-12-18T14:58:53;20.00;41.90
28374;DHT22;15616;40.148;-102.718;2022-12-18T15:01:35;20.00;41.90
28374;DHT22;15616;40.148;-102.718;2022-12-18T15:04:04;20.00;41.90
28374;DHT22;15616;40.148;-102.718;2022-12-18T15:06:31;20.00;41.90
28374;DHT22;15616;40.148;-102.718;2022-12-18T15:08:59;20.00;41.80
28374;DHT22;15616;40.148;-102.718;2022-12-18T15:11:42;20.00;41.90
28374;DHT22;15616;40.148;-102.718;2022-12-18T15:14:40;20.00;41.80
28374;DHT22;15616;40.148;-102.718;2022-12-18T15:17:18;20.10;41.80
28374;DHT22;15616;40.148;-102.718;2022-12-18T15:19:45;20.10;41.80
28374;DHT22;15616;40.148;-102.718;2022-12-18T15:22:36;20.00;41.80
28374;DHT22;15616;40.148;-102.718;2022-12-18T15:25:04;20.10;41.70
28374;DHT22;15616;40.148;-102.718;2022-12-18T15:27:46;20.10;41.80
28374;DHT22;15616;40.148;-102.718;2022-12-18T15:30:18;20.10;41.80
28374;DHT22;15616;40.148;-102.718;2022-12-18T15:32:44;20.10;41.70
28374;DHT22;15616;40.148;-102.718;2022-12-18T15:37:40;20.00;41.70
28374;DHT22;15616;40.148;-102.718;2022-12-18T15:40:16;20.00;41.70
28374;DHT22;15616;40.148;-102.718;2022-12-18T15:42:43;20.00;41.80
28374;DHT22;15616;40.148;-102.718;2022-12-18T15:45:27;20.00;41.80
28374;DHT22;15616;40.148;-102.718;2022-12-18T15:47:53;20.00;41.80
28374;DHT22;15616;40.148;-102.718;2022-12-18T15:50:19;20.00;41.80
28374;DHT22;15616;40.148;-102.718;2022-12-18T15:52:48;20.00;41.80
28374;DHT22;15616;40.148;-102.718;2022-12-18T15:55:18;20.00;41.80
28374;DHT22;15616;40.148;-102.718;2022-12-18T15:58:04;20.00;41.70
28374;DHT22;15616;40.148;-102.718;2022-12-18T16:00:32;20.00;41.80
28374;DHT22;15616;40.148;-102.718;2022-12-18T16:02:58;20.00;41.70
28374;DHT22;15616;40.148;-102.718;2022-12-18T16:05:24;20.00;41.70
28374;DHT22;15616;40.148;-102.718;2022-12-18T16:07:51;20.10;41.70
28374;DHT22;15616;40.148;-102.718;2022-12-18T16:10:17;20.00;41.70
28374;DHT22;15616;40.148;-102.718;2022-12-18T16:12:43;20.00;41.70
28374;DHT22;15616;40.148;-102.718;2022-12-18T16:15:12;20.00;41.70
28374;DHT22;15616;40.148;-102.718;2022-12-18T16:17:40;20.00;41.70
28374;DHT22;15616;40.148;-102.718;2022-12-18T16:20:13;20.10;41.80
28374;DHT22;15616;40.148;-102.718;2022-12-18T16:22:40;20.00;41.80
28374;DHT22;15616;40.148;-102.718;2022-12-18T16:25:23;20.00;41.80
28374;DHT22;15616;40.148;-102.718;2022-12-18T16:27:50;19.90;41.90
28374;DHT22;15616;40.148;-102.718;2022-12-18T16:30:19;20.00;41.90
28374;DHT22;15616;40.148;-102.718;2022-12-18T16:32:45;20.00;41.90
28374;DHT22;15616;40.148;-102.718;2022-12-18T16:35:13;20.00;41.90
28374;DHT22;15616;40.148;-102.718;2022-12-18T16:37:40;20.00;41.90
28374;DHT22;15616;40.148;-102.718;2022-12-18T16:40:08;20.00;41.80
28374;DHT22;15616;40.148;-102.718;2022-12-18T16:42:39;20.00;42.50
28374;DHT22;15616;40.148;-102.718;2022-12-18T16:45:08;20.10;41.80
28374;DHT22;15616;40.148;-102.718;2022-12-18T16:47:34;20.00;42.40
28374;DHT22;15616;40.148;-102.718;2022-12-18T16:50:00;20.00;41.70
28374;DHT22;15616;40.148;-102.718;2022-12-18T16:52:26;20.10;41.80
28374;DHT22;15616;40.148;-102.718;2022-12-18T16:54:52;20.00;41.70